sensor_id;sensor_type;location;lat;lon;timestamp;P1;durP1;ratioP1;P2;durP2;ratioP2
24585;SDS011;12743;52.262;6.172;2023-02-24T00:01:52;10.93;;;2.50;;
24585;SDS011;12743;52.262;6.172;2023-02-24T00:04:26;11.55;;;2.30;;
24585;SDS011;12743;52.262;6.172;2023-02-24T00:06:54;21.95;;;3.08;;
24585;SDS011;12743;52.262;6.172;2023-02-24T00:09:22;14.13;;;2.57;;
24585;SDS011;12743;52.262;6.172;2023-02-24T00:11:54;13.25;;;2.72;;
24585;SDS011;12743;52.262;6.172;2023-02-24T00:14:23;16.73;;;2.35;;
24585;SDS011;12743;52.262;6.172;2023-02-24T00:16:52;14.48;;;2.80;;
24585;SDS011;12743;52.262;6.172;2023-02-24T00:19:20;14.80;;;2.55;;
24585;SDS011;12743;52.262;6.172;2023-02-24T00:21:49;13.87;;;2.87;;
24585;SDS011;12743;52.262;6.172;2023-02-24T00:24:16;12.95;;;2.20;;
24585;SDS011;12743;52.262;6.172;2023-02-24T00:26:43;11.18;;;1.73;;
24585;SDS011;12743;52.262;6.172;2023-02-24T00:29:11;11.30;;;1.50;;
24585;SDS011;12743;52.262;6.172;2023-02-24T00:31:41;9.70;;;1.60;;
24585;SDS011;12743;52.262;6.172;2023-02-24T00:34:09;16.63;;;1.90;;
24585;SDS011;12743;52.262;6.172;2023-02-24T00:36:38;14.68;;;2.15;;
24585;SDS011;12743;52.262;6.172;2023-02-24T00:39:05;11.77;;;1.50;;
24585;SDS011;12743;52.262;6.172;2023-02-24T00:41:38;12.70;;;1.67;;
24585;SDS011;12743;52.262;6.172;2023-02-24T00:44:12;11.50;;;1.50;;
24585;SDS011;12743;52.262;6.172;2023-02-24T00:46:43;10.87;;;1.20;;
24585;SDS011;12743;52.262;6.172;2023-02-24T00:49:13;14.52;;;1.50;;
24585;SDS011;12743;52.262;6.172;2023-02-24T00:51:43;13.40;;;1.52;;
24585;SDS011;12743;52.262;6.172;2023-02-24T00:54:11;10.88;;;1.35;;
24585;SDS011;12743;52.262;6.172;2023-02-24T00:56:41;11.27;;;1.35;;
24585;SDS011;12743;52.262;6.172;2023-02-24T00:59:09;9.77;;;1.40;;
24585;SDS011;12743;52.262;6.172;2023-02-24T01:01:36;11.35;;;1.10;;
24585;SDS011;12743;52.262;6.172;2023-02-24T01:04:04;14.85;;;1.80;;
24585;SDS011;12743;52.262;6.172;2023-02-24T01:06:31;9.75;;;1.27;;
24585;SDS011;12743;52.262;6.172;2023-02-24T01:08:59;11.50;;;0.85;;
24585;SDS011;12743;52.262;6.172;2023-02-24T01:11:27;12.77;;;2.40;;
24585;SDS011;12743;52.262;6.172;2023-02-24T01:14:17;10.18;;;0.95;;
24585;SDS011;12743;52.262;6.172;2023-02-24T01:16:45;10.85;;;1.20;;
24585;SDS011;12743;52.262;6.172;2023-02-24T01:19:16;11.07;;;1.08;;
24585;SDS011;12743;52.262;6.172;2023-02-24T01:21:43;13.90;;;1.30;;
24585;SDS011;12743;52.262;6.172;2023-02-24T01:24:11;11.23;;;0.90;;
24585;SDS011;12743;52.262;6.172;2023-02-24T01:26:41;7.75;;;1.35;;
24585;SDS011;12743;52.262;6.172;2023-02-24T01:29:07;6.07;;;1.00;;
24585;SDS011;12743;52.262;6.172;2023-02-24T01:31:37;7.07;;;0.95;;
24585;SDS011;12743;52.262;6.172;2023-02-24T01:34:05;9.73;;;1.75;;
24585;SDS011;12743;52.262;6.172;2023-02-24T01:36:32;8.33;;;0.73;;
24585;SDS011;12743;52.262;6.172;2023-02-24T01:38:59;16.40;;;0.90;;
24585;SDS011;12743;52.262;6.172;2023-02-24T01:41:27;5.72;;;0.63;;
24585;SDS011;12743;52.262;6.172;2023-02-24T01:46:40;6.97;;;0.63;;
24585;SDS011;12743;52.262;6.172;2023-02-24T01:49:12;10.73;;;0.90;;
24585;SDS011;12743;52.262;6.172;2023-02-24T01:51:50;6.07;;;0.75;;
24585;SDS011;12743;52.262;6.172;2023-02-24T01:54:33;7.22;;;0.75;;
24585;SDS011;12743;52.262;6.172;2023-02-24T01:57:04;7.60;;;0.57;;
24585;SDS011;12743;52.262;6.172;2023-02-24T01:59:32;5.85;;;0.63;;
24585;SDS011;12743;52.262;6.172;2023-02-24T02:02:03;5.00;;;0.80;;
24585;SDS011;12743;52.262;6.172;2023-02-24T02:04:46;7.80;;;0.90;;
24585;SDS011;12743;52.262;6.172;2023-02-24T02:07:17;7.47;;;0.60;;
24585;SDS011;12743;52.262;6.172;2023-02-24T02:09:47;9.18;;;0.63;;
24585;SDS011;12743;52.262;6.172;2023-02-24T02:12:15;6.85;;;0.50;;
24585;SDS011;12743;52.262;6.172;2023-02-24T02:14:43;5.57;;;0.63;;
24585;SDS011;12743;52.262;6.172;2023-02-24T02:17:31;5.50;;;0.75;;
24585;SDS011;12743;52.262;6.172;2023-02-24T02:39:29;6.53;;;1.08;;
24585;SDS011;12743;52.262;6.172;2023-02-24T02:42:04;9.63;;;0.63;;
24585;SDS011;12743;52.262;6.172;2023-02-24T02:44:46;9.30;;;0.73;;
24585;SDS011;12743;52.262;6.172;2023-02-24T02:50:39;6.88;;;0.60;;
24585;SDS011;12743;52.262;6.172;2023-02-24T02:53:13;6.78;;;0.68;;
24585;SDS011;12743;52.262;6.172;2023-02-24T02:55:53;8.47;;;0.90;;
24585;SDS011;12743;52.262;6.172;2023-02-24T02:58:27;5.65;;;0.75;;
24585;SDS011;12743;52.262;6.172;2023-02-24T03:00:59;6.03;;;1.00;;
24585;SDS011;12743;52.262;6.172;2023-02-24T03:03:33;6.35;;;1.00;;
24585;SDS011;12743;52.262;6.172;2023-02-24T03:06:05;14.40;;;0.77;;
24585;SDS011;12743;52.262;6.172;2023-02-24T03:08:38;12.80;;;1.40;;
24585;SDS011;12743;52.262;6.172;2023-02-24T03:11:10;10.52;;;1.38;;
24585;SDS011;12743;52.262;6.172;2023-02-24T03:13:40;6.07;;;0.68;;
24585;SDS011;12743;52.262;6.172;2023-02-24T03:16:11;14.85;;;1.42;;
24585;SDS011;12743;52.262;6.172;2023-02-24T03:18:42;7.22;;;0.70;;
24585;SDS011;12743;52.262;6.172;2023-02-24T03:21:17;12.10;;;1.37;;
24585;SDS011;12743;52.262;6.172;2023-02-24T03:23:51;10.70;;;1.25;;
24585;SDS011;12743;52.262;6.172;2023-02-24T03:29:11;9.32;;;1.17;;
24585;SDS011;12743;52.262;6.172;2023-02-24T03:31:45;6.95;;;1.00;;
24585;SDS011;12743;52.262;6.172;2023-02-24T03:34:31;12.53;;;1.47;;
24585;SDS011;12743;52.262;6.172;2023-02-24T03:37:02;8.07;;;0.93;;
24585;SDS011;12743;52.262;6.172;2023-02-24T03:39:29;8.23;;;1.15;;
24585;SDS011;12743;52.262;6.172;2023-02-24T03:42:10;12.43;;;1.45;;
24585;SDS011;12743;52.262;6.172;2023-02-24T03:44:40;11.57;;;1.67;;
24585;SDS011;12743;52.262;6.172;2023-02-24T03:47:07;7.40;;;0.90;;
24585;SDS011;12743;52.262;6.172;2023-02-24T03:49:34;8.70;;;1.60;;
24585;SDS011;12743;52.262;6.172;2023-02-24T03:52:07;8.55;;;1.23;;
24585;SDS011;12743;52.262;6.172;2023-02-24T03:54:52;7.90;;;1.20;;
24585;SDS011;12743;52.262;6.172;2023-02-24T04:00:51;9.23;;;1.17;;
24585;SDS011;12743;52.262;6.172;2023-02-24T04:03:39;7.68;;;1.23;;
24585;SDS011;12743;52.262;6.172;2023-02-24T04:06:31;13.80;;;1.80;;
24585;SDS011;12743;52.262;6.172;2023-02-24T04:09:06;7.30;;;0.90;;
24585;SDS011;12743;52.262;6.172;2023-02-24T04:12:06;10.48;;;1.52;;
24585;SDS011;12743;52.262;6.172;2023-02-24T04:17:28;10.27;;;1.50;;
24585;SDS011;12743;52.262;6.172;2023-02-24T04:20:01;7.72;;;1.05;;
24585;SDS011;12743;52.262;6.172;2023-02-24T04:22:48;10.45;;;1.30;;
24585;SDS011;12743;52.262;6.172;2023-02-24T04:25:20;10.90;;;1.75;;
24585;SDS011;12743;52.262;6.172;2023-02-24T04:27:52;9.10;;;2.10;;
24585;SDS011;12743;52.262;6.172;2023-02-24T04:30:21;13.73;;;1.77;;
24585;SDS011;12743;52.262;6.172;2023-02-24T04:32:50;10.50;;;1.27;;
24585;SDS011;12743;52.262;6.172;2023-02-24T04:35:18;6.63;;;1.50;;
24585;SDS011;12743;52.262;6.172;2023-02-24T04:37:49;8.45;;;1.45;;
24585;SDS011;12743;52.262;6.172;2023-02-24T04:40:16;10.27;;;1.43;;
24585;SDS011;12743;52.262;6.172;2023-02-24T04:42:48;7.32;;;1.40;;
24585;SDS011;12743;52.262;6.172;2023-02-24T04:45:15;10.32;;;1.00;;
24585;SDS011;12743;52.262;6.172;2023-02-24T04:47:50;9.13;;;1.42;;
24585;SDS011;12743;52.262;6.172;2023-02-24T04:50:22;10.90;;;1.75;;
24585;SDS011;12743;52.262;6.172;2023-02-24T04:55:22;11.38;;;1.65;;
24585;SDS011;12743;52.262;6.172;2023-02-24T04:57:51;8.68;;;1.55;;
24585;SDS011;12743;52.262;6.172;2023-02-24T05:00:18;10.77;;;1.35;;
24585;SDS011;12743;52.262;6.172;2023-02-24T05:02:50;11.50;;;1.58;;
24585;SDS011;12743;52.262;6.172;2023-02-24T05:05:23;11.57;;;1.17;;
24585;SDS011;12743;52.262;6.172;2023-02-24T05:07:51;9.45;;;1.60;;
24585;SDS011;12743;52.262;6.172;2023-02-24T05:10:22;12.02;;;1.20;;
24585;SDS011;12743;52.262;6.172;2023-02-24T05:12:53;8.70;;;1.15;;
24585;SDS011;12743;52.262;6.172;2023-02-24T05:15:23;10.77;;;1.33;;
24585;SDS011;12743;52.262;6.172;2023-02-24T05:17:59;8.83;;;1.57;;
24585;SDS011;12743;52.262;6.172;2023-02-24T05:20:36;9.57;;;1.35;;
24585;SDS011;12743;52.262;6.172;2023-02-24T05:23:26;8.35;;;1.00;;
24585;SDS011;12743;52.262;6.172;2023-02-24T05:25:57;7.97;;;1.30;;
24585;SDS011;12743;52.262;6.172;2023-02-24T05:28:24;8.43;;;1.02;;
24585;SDS011;12743;52.262;6.172;2023-02-24T05:30:51;15.07;;;1.00;;
24585;SDS011;12743;52.262;6.172;2023-02-24T05:33:21;9.75;;;1.42;;
24585;SDS011;12743;52.262;6.172;2023-02-24T05:35:48;8.32;;;1.08;;
24585;SDS011;12743;52.262;6.172;2023-02-24T05:38:16;10.70;;;1.67;;
24585;SDS011;12743;52.262;6.172;2023-02-24T05:40:45;6.50;;;1.08;;
24585;SDS011;12743;52.262;6.172;2023-02-24T05:43:15;11.03;;;1.53;;
24585;SDS011;12743;52.262;6.172;2023-02-24T05:45:44;11.02;;;1.40;;
24585;SDS011;12743;52.262;6.172;2023-02-24T05:48:12;13.57;;;1.33;;
24585;SDS011;12743;52.262;6.172;2023-02-24T05:50:41;8.10;;;0.80;;
24585;SDS011;12743;52.262;6.172;2023-02-24T05:53:17;7.85;;;0.90;;
24585;SDS011;12743;52.262;6.172;2023-02-24T05:55:44;7.37;;;1.40;;
24585;SDS011;12743;52.262;6.172;2023-02-24T05:58:10;12.13;;;1.38;;
24585;SDS011;12743;52.262;6.172;2023-02-24T06:00:37;8.52;;;1.00;;
24585;SDS011;12743;52.262;6.172;2023-02-24T06:03:04;6.68;;;1.13;;
24585;SDS011;12743;52.262;6.172;2023-02-24T06:05:42;13.73;;;2.33;;
24585;SDS011;12743;52.262;6.172;2023-02-24T06:08:09;8.77;;;1.67;;
24585;SDS011;12743;52.262;6.172;2023-02-24T06:10:38;11.32;;;1.23;;
24585;SDS011;12743;52.262;6.172;2023-02-24T06:13:05;9.93;;;1.50;;
24585;SDS011;12743;52.262;6.172;2023-02-24T06:15:32;11.05;;;1.13;;
24585;SDS011;12743;52.262;6.172;2023-02-24T06:17:59;6.57;;;1.00;;
24585;SDS011;12743;52.262;6.172;2023-02-24T06:20:29;11.60;;;1.23;;
24585;SDS011;12743;52.262;6.172;2023-02-24T06:22:58;8.45;;;1.20;;
24585;SDS011;12743;52.262;6.172;2023-02-24T06:25:25;7.55;;;1.33;;
24585;SDS011;12743;52.262;6.172;2023-02-24T06:27:54;8.52;;;1.17;;
24585;SDS011;12743;52.262;6.172;2023-02-24T06:30:22;7.72;;;0.82;;
24585;SDS011;12743;52.262;6.172;2023-02-24T06:32:50;8.03;;;1.00;;
24585;SDS011;12743;52.262;6.172;2023-02-24T06:35:17;9.57;;;1.10;;
24585;SDS011;12743;52.262;6.172;2023-02-24T06:37:44;11.27;;;1.30;;
24585;SDS011;12743;52.262;6.172;2023-02-24T06:40:11;6.90;;;0.85;;
24585;SDS011;12743;52.262;6.172;2023-02-24T06:42:44;9.15;;;1.30;;
24585;SDS011;12743;52.262;6.172;2023-02-24T06:45:12;11.70;;;1.53;;
24585;SDS011;12743;52.262;6.172;2023-02-24T06:47:41;11.90;;;1.20;;
24585;SDS011;12743;52.262;6.172;2023-02-24T06:50:09;12.68;;;2.08;;
24585;SDS011;12743;52.262;6.172;2023-02-24T06:52:36;9.00;;;0.90;;
24585;SDS011;12743;52.262;6.172;2023-02-24T06:55:03;9.40;;;1.05;;
24585;SDS011;12743;52.262;6.172;2023-02-24T06:57:30;10.13;;;1.00;;
24585;SDS011;12743;52.262;6.172;2023-02-24T07:00:00;12.43;;;1.17;;
24585;SDS011;12743;52.262;6.172;2023-02-24T07:02:42;8.18;;;1.10;;
24585;SDS011;12743;52.262;6.172;2023-02-24T07:05:08;8.02;;;0.88;;
24585;SDS011;12743;52.262;6.172;2023-02-24T07:07:39;8.48;;;0.70;;
24585;SDS011;12743;52.262;6.172;2023-02-24T07:10:11;10.40;;;1.17;;
24585;SDS011;12743;52.262;6.172;2023-02-24T07:12:41;5.32;;;0.85;;
24585;SDS011;12743;52.262;6.172;2023-02-24T07:15:07;8.18;;;1.08;;
24585;SDS011;12743;52.262;6.172;2023-02-24T07:17:34;7.47;;;0.88;;
24585;SDS011;12743;52.262;6.172;2023-02-24T07:20:02;8.27;;;1.10;;
24585;SDS011;12743;52.262;6.172;2023-02-24T07:22:37;8.70;;;0.80;;
24585;SDS011;12743;52.262;6.172;2023-02-24T07:25:03;7.10;;;1.42;;
24585;SDS011;12743;52.262;6.172;2023-02-24T07:27:32;5.75;;;1.05;;
24585;SDS011;12743;52.262;6.172;2023-02-24T07:29:58;4.70;;;0.80;;
24585;SDS011;12743;52.262;6.172;2023-02-24T07:32:28;9.32;;;1.40;;
24585;SDS011;12743;52.262;6.172;2023-02-24T07:34:55;9.13;;;1.33;;
24585;SDS011;12743;52.262;6.172;2023-02-24T07:37:22;10.85;;;1.85;;
24585;SDS011;12743;52.262;6.172;2023-02-24T07:39:49;10.77;;;1.30;;
24585;SDS011;12743;52.262;6.172;2023-02-24T07:42:16;11.02;;;1.35;;
24585;SDS011;12743;52.262;6.172;2023-02-24T07:44:43;10.18;;;1.90;;
24585;SDS011;12743;52.262;6.172;2023-02-24T07:47:12;8.90;;;1.90;;
24585;SDS011;12743;52.262;6.172;2023-02-24T07:49:40;10.35;;;1.83;;
24585;SDS011;12743;52.262;6.172;2023-02-24T07:52:07;10.00;;;1.83;;
24585;SDS011;12743;52.262;6.172;2023-02-24T07:54:34;9.32;;;1.45;;
24585;SDS011;12743;52.262;6.172;2023-02-24T07:57:02;10.13;;;1.70;;
24585;SDS011;12743;52.262;6.172;2023-02-24T07:59:29;7.07;;;1.67;;
24585;SDS011;12743;52.262;6.172;2023-02-24T08:01:58;8.73;;;1.98;;
24585;SDS011;12743;52.262;6.172;2023-02-24T08:04:26;13.88;;;2.63;;
24585;SDS011;12743;52.262;6.172;2023-02-24T08:06:55;8.27;;;2.22;;
24585;SDS011;12743;52.262;6.172;2023-02-24T08:09:25;9.68;;;2.33;;
24585;SDS011;12743;52.262;6.172;2023-02-24T08:12:20;10.27;;;1.57;;
24585;SDS011;12743;52.262;6.172;2023-02-24T08:14:51;7.50;;;1.70;;
24585;SDS011;12743;52.262;6.172;2023-02-24T08:17:19;8.07;;;1.80;;
24585;SDS011;12743;52.262;6.172;2023-02-24T08:19:49;12.77;;;1.70;;
24585;SDS011;12743;52.262;6.172;2023-02-24T08:22:35;6.90;;;2.00;;
24585;SDS011;12743;52.262;6.172;2023-02-24T08:25:02;8.67;;;1.80;;
24585;SDS011;12743;52.262;6.172;2023-02-24T08:27:33;10.35;;;1.77;;
24585;SDS011;12743;52.262;6.172;2023-02-24T08:30:05;8.70;;;1.88;;
24585;SDS011;12743;52.262;6.172;2023-02-24T08:32:37;11.73;;;1.65;;
24585;SDS011;12743;52.262;6.172;2023-02-24T08:35:16;8.95;;;1.73;;
24585;SDS011;12743;52.262;6.172;2023-02-24T08:40:16;9.05;;;1.50;;
24585;SDS011;12743;52.262;6.172;2023-02-24T08:51:24;8.17;;;1.57;;
24585;SDS011;12743;52.262;6.172;2023-02-24T08:53:57;11.93;;;2.25;;
24585;SDS011;12743;52.262;6.172;2023-02-24T08:56:28;15.40;;;1.65;;
24585;SDS011;12743;52.262;6.172;2023-02-24T08:58:56;6.13;;;1.05;;
24585;SDS011;12743;52.262;6.172;2023-02-24T09:01:32;5.57;;;1.55;;
24585;SDS011;12743;52.262;6.172;2023-02-24T09:04:08;9.87;;;1.47;;
24585;SDS011;12743;52.262;6.172;2023-02-24T09:06:38;12.90;;;1.50;;
24585;SDS011;12743;52.262;6.172;2023-02-24T09:09:18;7.55;;;1.55;;
24585;SDS011;12743;52.262;6.172;2023-02-24T09:14:25;10.98;;;1.58;;
24585;SDS011;12743;52.262;6.172;2023-02-24T09:16:55;7.20;;;1.40;;
24585;SDS011;12743;52.262;6.172;2023-02-24T09:19:36;13.52;;;1.55;;
24585;SDS011;12743;52.262;6.172;2023-02-24T09:22:13;10.50;;;2.03;;
24585;SDS011;12743;52.262;6.172;2023-02-24T09:24:55;12.07;;;1.70;;
24585;SDS011;12743;52.262;6.172;2023-02-24T09:30:09;10.80;;;1.40;;
24585;SDS011;12743;52.262;6.172;2023-02-24T09:32:56;9.20;;;1.33;;
24585;SDS011;12743;52.262;6.172;2023-02-24T09:35:27;11.35;;;1.60;;
24585;SDS011;12743;52.262;6.172;2023-02-24T09:38:04;15.18;;;1.20;;
24585;SDS011;12743;52.262;6.172;2023-02-24T09:40:32;14.65;;;2.10;;
24585;SDS011;12743;52.262;6.172;2023-02-24T09:43:35;11.90;;;1.70;;
24585;SDS011;12743;52.262;6.172;2023-02-24T09:46:09;10.90;;;1.67;;
24585;SDS011;12743;52.262;6.172;2023-02-24T09:48:45;10.00;;;1.60;;
24585;SDS011;12743;52.262;6.172;2023-02-24T09:51:19;13.07;;;2.10;;
24585;SDS011;12743;52.262;6.172;2023-02-24T09:53:49;10.30;;;2.00;;
24585;SDS011;12743;52.262;6.172;2023-02-24T09:56:25;10.23;;;1.87;;
24585;SDS011;12743;52.262;6.172;2023-02-24T10:01:38;11.18;;;1.85;;
24585;SDS011;12743;52.262;6.172;2023-02-24T10:07:25;9.02;;;1.77;;
24585;SDS011;12743;52.262;6.172;2023-02-24T10:09:57;17.70;;;3.40;;
24585;SDS011;12743;52.262;6.172;2023-02-24T10:12:46;13.55;;;2.20;;
24585;SDS011;12743;52.262;6.172;2023-02-24T10:15:17;14.65;;;2.28;;
24585;SDS011;12743;52.262;6.172;2023-02-24T10:21:02;12.77;;;2.65;;
24585;SDS011;12743;52.262;6.172;2023-02-24T10:23:59;11.00;;;2.67;;
24585;SDS011;12743;52.262;6.172;2023-02-24T10:26:29;15.38;;;2.80;;
24585;SDS011;12743;52.262;6.172;2023-02-24T10:29:37;10.80;;;3.03;;
24585;SDS011;12743;52.262;6.172;2023-02-24T10:32:17;12.05;;;2.75;;
24585;SDS011;12743;52.262;6.172;2023-02-24T10:34:49;11.45;;;3.00;;
24585;SDS011;12743;52.262;6.172;2023-02-24T10:37:18;15.90;;;3.43;;
24585;SDS011;12743;52.262;6.172;2023-02-24T10:39:58;13.20;;;3.17;;
24585;SDS011;12743;52.262;6.172;2023-02-24T10:42:36;18.75;;;3.40;;
24585;SDS011;12743;52.262;6.172;2023-02-24T10:45:19;10.95;;;3.55;;
24585;SDS011;12743;52.262;6.172;2023-02-24T10:47:50;11.00;;;3.38;;
24585;SDS011;12743;52.262;6.172;2023-02-24T10:50:27;14.77;;;4.17;;
24585;SDS011;12743;52.262;6.172;2023-02-24T10:53:02;16.88;;;3.70;;
24585;SDS011;12743;52.262;6.172;2023-02-24T10:55:33;11.27;;;4.07;;
24585;SDS011;12743;52.262;6.172;2023-02-24T10:58:10;11.63;;;3.88;;
24585;SDS011;12743;52.262;6.172;2023-02-24T11:00:43;14.35;;;4.05;;
24585;SDS011;12743;52.262;6.172;2023-02-24T11:03:26;11.70;;;3.50;;
24585;SDS011;12743;52.262;6.172;2023-02-24T11:06:18;13.02;;;4.03;;
24585;SDS011;12743;52.262;6.172;2023-02-24T11:08:57;10.38;;;3.80;;
24585;SDS011;12743;52.262;6.172;2023-02-24T11:12:13;10.25;;;3.22;;
24585;SDS011;12743;52.262;6.172;2023-02-24T11:15:23;10.68;;;3.97;;
24585;SDS011;12743;52.262;6.172;2023-02-24T11:18:17;9.77;;;3.60;;
24585;SDS011;12743;52.262;6.172;2023-02-24T11:20:52;11.38;;;4.47;;
24585;SDS011;12743;52.262;6.172;2023-02-24T11:23:24;10.38;;;3.67;;
24585;SDS011;12743;52.262;6.172;2023-02-24T11:25:58;13.10;;;4.30;;
24585;SDS011;12743;52.262;6.172;2023-02-24T11:28:36;10.82;;;3.67;;
24585;SDS011;12743;52.262;6.172;2023-02-24T11:31:33;12.30;;;4.37;;
24585;SDS011;12743;52.262;6.172;2023-02-24T11:34:21;11.88;;;4.28;;
24585;SDS011;12743;52.262;6.172;2023-02-24T11:39:47;11.75;;;4.38;;
24585;SDS011;12743;52.262;6.172;2023-02-24T11:42:18;14.55;;;4.50;;
24585;SDS011;12743;52.262;6.172;2023-02-24T11:45:06;14.03;;;4.77;;
24585;SDS011;12743;52.262;6.172;2023-02-24T11:47:42;11.75;;;4.57;;
24585;SDS011;12743;52.262;6.172;2023-02-24T11:50:18;13.65;;;4.90;;
24585;SDS011;12743;52.262;6.172;2023-02-24T11:52:54;17.02;;;5.38;;
24585;SDS011;12743;52.262;6.172;2023-02-24T11:55:43;9.98;;;4.68;;
24585;SDS011;12743;52.262;6.172;2023-02-24T11:58:17;11.03;;;4.83;;
24585;SDS011;12743;52.262;6.172;2023-02-24T12:00:57;13.02;;;4.85;;
24585;SDS011;12743;52.262;6.172;2023-02-24T12:06:25;11.43;;;4.75;;
24585;SDS011;12743;52.262;6.172;2023-02-24T12:08:59;12.30;;;5.00;;
24585;SDS011;12743;52.262;6.172;2023-02-24T12:11:45;9.40;;;3.90;;
24585;SDS011;12743;52.262;6.172;2023-02-24T12:14:20;8.80;;;4.47;;
24585;SDS011;12743;52.262;6.172;2023-02-24T12:17:02;10.55;;;4.40;;
24585;SDS011;12743;52.262;6.172;2023-02-24T12:19:43;15.55;;;4.93;;
24585;SDS011;12743;52.262;6.172;2023-02-24T12:22:18;8.02;;;4.30;;
24585;SDS011;12743;52.262;6.172;2023-02-24T12:24:47;10.63;;;4.60;;
24585;SDS011;12743;52.262;6.172;2023-02-24T12:30:08;16.95;;;5.00;;
24585;SDS011;12743;52.262;6.172;2023-02-24T12:32:54;14.07;;;5.43;;
24585;SDS011;12743;52.262;6.172;2023-02-24T12:35:35;11.68;;;4.93;;
24585;SDS011;12743;52.262;6.172;2023-02-24T12:47:04;16.20;;;5.22;;
24585;SDS011;12743;52.262;6.172;2023-02-24T12:52:28;18.77;;;5.17;;
24585;SDS011;12743;52.262;6.172;2023-02-24T13:04:05;17.23;;;4.03;;
24585;SDS011;12743;52.262;6.172;2023-02-24T13:15:24;23.45;;;2.35;;
24585;SDS011;12743;52.262;6.172;2023-02-24T13:17:53;26.35;;;3.17;;
24585;SDS011;12743;52.262;6.172;2023-02-24T13:20:25;20.77;;;2.50;;
24585;SDS011;12743;52.262;6.172;2023-02-24T13:22:56;22.88;;;2.38;;
24585;SDS011;12743;52.262;6.172;2023-02-24T13:25:28;17.20;;;1.77;;
24585;SDS011;12743;52.262;6.172;2023-02-24T13:27:57;20.65;;;1.92;;
24585;SDS011;12743;52.262;6.172;2023-02-24T13:35:42;13.13;;;2.00;;
24585;SDS011;12743;52.262;6.172;2023-02-24T13:40:51;22.02;;;3.00;;
24585;SDS011;12743;52.262;6.172;2023-02-24T13:43:19;20.85;;;2.20;;
24585;SDS011;12743;52.262;6.172;2023-02-24T13:45:52;17.80;;;2.20;;
24585;SDS011;12743;52.262;6.172;2023-02-24T13:56:36;18.85;;;1.75;;
24585;SDS011;12743;52.262;6.172;2023-02-24T13:59:35;21.10;;;2.00;;
24585;SDS011;12743;52.262;6.172;2023-02-24T14:02:16;18.00;;;1.60;;
24585;SDS011;12743;52.262;6.172;2023-02-24T14:04:52;17.80;;;2.53;;
24585;SDS011;12743;52.262;6.172;2023-02-24T14:07:25;11.70;;;1.70;;
24585;SDS011;12743;52.262;6.172;2023-02-24T14:09:58;10.88;;;1.40;;
24585;SDS011;12743;52.262;6.172;2023-02-24T14:12:31;12.63;;;1.57;;
24585;SDS011;12743;52.262;6.172;2023-02-24T14:15:00;13.93;;;1.40;;
24585;SDS011;12743;52.262;6.172;2023-02-24T14:17:31;16.80;;;2.63;;
24585;SDS011;12743;52.262;6.172;2023-02-24T14:22:31;16.05;;;1.58;;
24585;SDS011;12743;52.262;6.172;2023-02-24T14:25:00;13.40;;;1.10;;
24585;SDS011;12743;52.262;6.172;2023-02-24T14:27:28;14.93;;;1.00;;
24585;SDS011;12743;52.262;6.172;2023-02-24T14:29:54;13.35;;;0.77;;
24585;SDS011;12743;52.262;6.172;2023-02-24T14:32:22;12.52;;;0.75;;
24585;SDS011;12743;52.262;6.172;2023-02-24T14:34:51;6.93;;;0.70;;
24585;SDS011;12743;52.262;6.172;2023-02-24T14:37:22;8.50;;;0.90;;
24585;SDS011;12743;52.262;6.172;2023-02-24T14:39:52;10.80;;;0.90;;
24585;SDS011;12743;52.262;6.172;2023-02-24T14:42:20;8.77;;;0.70;;
24585;SDS011;12743;52.262;6.172;2023-02-24T14:44:48;7.70;;;0.70;;
24585;SDS011;12743;52.262;6.172;2023-02-24T14:47:17;13.27;;;1.30;;
24585;SDS011;12743;52.262;6.172;2023-02-24T14:52:26;11.15;;;1.05;;
24585;SDS011;12743;52.262;6.172;2023-02-24T14:57:31;13.23;;;1.20;;
24585;SDS011;12743;52.262;6.172;2023-02-24T15:00:07;14.70;;;1.33;;
24585;SDS011;12743;52.262;6.172;2023-02-24T15:02:44;18.93;;;2.03;;
24585;SDS011;12743;52.262;6.172;2023-02-24T15:05:15;11.55;;;1.23;;
24585;SDS011;12743;52.262;6.172;2023-02-24T15:07:42;13.32;;;0.75;;
24585;SDS011;12743;52.262;6.172;2023-02-24T15:10:17;8.55;;;0.90;;
24585;SDS011;12743;52.262;6.172;2023-02-24T15:12:47;8.77;;;0.85;;
24585;SDS011;12743;52.262;6.172;2023-02-24T15:15:19;5.33;;;0.40;;
24585;SDS011;12743;52.262;6.172;2023-02-24T15:17:50;6.55;;;0.32;;
24585;SDS011;12743;52.262;6.172;2023-02-24T15:22:57;9.30;;;0.65;;
24585;SDS011;12743;52.262;6.172;2023-02-24T15:25:39;9.00;;;0.82;;
24585;SDS011;12743;52.262;6.172;2023-02-24T15:28:24;7.67;;;0.57;;
24585;SDS011;12743;52.262;6.172;2023-02-24T15:31:03;8.30;;;0.50;;
24585;SDS011;12743;52.262;6.172;2023-02-24T15:33:37;8.95;;;0.70;;
24585;SDS011;12743;52.262;6.172;2023-02-24T15:36:10;9.63;;;0.40;;
24585;SDS011;12743;52.262;6.172;2023-02-24T15:38:43;5.43;;;0.80;;
24585;SDS011;12743;52.262;6.172;2023-02-24T15:41:11;8.97;;;0.50;;
24585;SDS011;12743;52.262;6.172;2023-02-24T15:48:45;8.90;;;0.98;;
24585;SDS011;12743;52.262;6.172;2023-02-24T15:53:54;5.47;;;0.43;;
24585;SDS011;12743;52.262;6.172;2023-02-24T15:56:20;3.35;;;0.30;;
24585;SDS011;12743;52.262;6.172;2023-02-24T15:58:48;3.20;;;0.20;;
24585;SDS011;12743;52.262;6.172;2023-02-24T16:01:14;2.25;;;0.20;;
24585;SDS011;12743;52.262;6.172;2023-02-24T16:03:41;6.60;;;0.52;;
24585;SDS011;12743;52.262;6.172;2023-02-24T16:06:26;4.30;;;0.37;;
24585;SDS011;12743;52.262;6.172;2023-02-24T16:08:54;8.65;;;0.95;;
24585;SDS011;12743;52.262;6.172;2023-02-24T16:11:24;9.68;;;0.68;;
24585;SDS011;12743;52.262;6.172;2023-02-24T16:13:55;10.63;;;0.98;;
24585;SDS011;12743;52.262;6.172;2023-02-24T16:16:23;5.45;;;0.40;;
24585;SDS011;12743;52.262;6.172;2023-02-24T16:18:51;8.40;;;0.90;;
24585;SDS011;12743;52.262;6.172;2023-02-24T16:21:18;8.85;;;0.32;;
24585;SDS011;12743;52.262;6.172;2023-02-24T16:23:45;7.88;;;0.52;;
24585;SDS011;12743;52.262;6.172;2023-02-24T16:26:16;5.13;;;0.63;;
24585;SDS011;12743;52.262;6.172;2023-02-24T16:28:45;12.90;;;1.17;;
24585;SDS011;12743;52.262;6.172;2023-02-24T16:31:18;9.87;;;0.50;;
24585;SDS011;12743;52.262;6.172;2023-02-24T16:33:46;8.63;;;0.63;;
24585;SDS011;12743;52.262;6.172;2023-02-24T16:36:21;8.38;;;1.08;;
24585;SDS011;12743;52.262;6.172;2023-02-24T16:38:49;13.23;;;0.98;;
24585;SDS011;12743;52.262;6.172;2023-02-24T16:41:17;8.30;;;0.60;;
24585;SDS011;12743;52.262;6.172;2023-02-24T16:43:43;9.57;;;0.60;;
24585;SDS011;12743;52.262;6.172;2023-02-24T16:46:14;9.63;;;0.70;;
24585;SDS011;12743;52.262;6.172;2023-02-24T16:48:43;11.80;;;0.80;;
24585;SDS011;12743;52.262;6.172;2023-02-24T16:51:11;9.43;;;1.17;;
24585;SDS011;12743;52.262;6.172;2023-02-24T16:53:39;11.93;;;1.35;;
24585;SDS011;12743;52.262;6.172;2023-02-24T16:56:06;13.23;;;1.77;;
24585;SDS011;12743;52.262;6.172;2023-02-24T16:58:33;17.63;;;1.40;;
24585;SDS011;12743;52.262;6.172;2023-02-24T17:01:00;9.80;;;1.42;;
24585;SDS011;12743;52.262;6.172;2023-02-24T17:03:40;15.02;;;1.65;;
24585;SDS011;12743;52.262;6.172;2023-02-24T17:06:08;15.35;;;1.40;;
24585;SDS011;12743;52.262;6.172;2023-02-24T17:08:35;11.73;;;0.93;;
24585;SDS011;12743;52.262;6.172;2023-02-24T17:11:02;7.95;;;1.73;;
24585;SDS011;12743;52.262;6.172;2023-02-24T17:13:28;13.43;;;1.55;;
24585;SDS011;12743;52.262;6.172;2023-02-24T17:15:55;19.17;;;2.20;;
24585;SDS011;12743;52.262;6.172;2023-02-24T17:18:23;15.45;;;1.70;;
24585;SDS011;12743;52.262;6.172;2023-02-24T17:20:50;9.53;;;0.57;;
24585;SDS011;12743;52.262;6.172;2023-02-24T17:23:18;8.98;;;1.00;;
24585;SDS011;12743;52.262;6.172;2023-02-24T17:25:45;8.45;;;0.85;;
24585;SDS011;12743;52.262;6.172;2023-02-24T17:28:15;11.25;;;1.23;;